sensor_id;sensor_type;location;lat;lon;timestamp;P1;durP1;ratioP1;P2;durP2;ratioP2
11541;SDS011;5827;49.482;7.716;2022-08-03T00:00:25;3.27;;;3.00;;
11541;SDS011;5827;49.482;7.716;2022-08-03T00:02:27;3.60;;;3.30;;
11541;SDS011;5827;49.482;7.716;2022-08-03T00:04:28;3.37;;;3.07;;
11541;SDS011;5827;49.482;7.716;2022-08-03T00:06:30;5.40;;;3.27;;
11541;SDS011;5827;49.482;7.716;2022-08-03T00:08:33;2.93;;;2.73;;
11541;SDS011;5827;49.482;7.716;2022-08-03T00:10:34;3.60;;;2.87;;
11541;SDS011;5827;49.482;7.716;2022-08-03T00:12:37;2.83;;;2.63;;
11541;SDS011;5827;49.482;7.716;2022-08-03T00:14:38;3.40;;;2.70;;
11541;SDS011;5827;49.482;7.716;2022-08-03T00:16:40;3.30;;;3.00;;
11541;SDS011;5827;49.482;7.716;2022-08-03T00:18:41;3.40;;;3.10;;
11541;SDS011;5827;49.482;7.716;2022-08-03T00:20:43;3.07;;;2.87;;
11541;SDS011;5827;49.482;7.716;2022-08-03T00:22:45;3.47;;;3.17;;
11541;SDS011;5827;49.482;7.716;2022-08-03T00:24:48;3.90;;;2.77;;
11541;SDS011;5827;49.482;7.716;2022-08-03T00:26:49;3.40;;;3.10;;
11541;SDS011;5827;49.482;7.716;2022-08-03T00:28:51;4.10;;;2.93;;
11541;SDS011;5827;49.482;7.716;2022-08-03T00:30:52;3.17;;;2.90;;
11541;SDS011;5827;49.482;7.716;2022-08-03T00:32:54;3.53;;;3.23;;
11541;SDS011;5827;49.482;7.716;2022-08-03T00:34:56;4.73;;;3.10;;
11541;SDS011;5827;49.482;7.716;2022-08-03T00:36:57;4.47;;;3.03;;
11541;SDS011;5827;49.482;7.716;2022-08-03T00:38:59;4.20;;;3.43;;
11541;SDS011;5827;49.482;7.716;2022-08-03T00:41:02;3.40;;;3.10;;
11541;SDS011;5827;49.482;7.716;2022-08-03T00:43:04;3.47;;;3.20;;
11541;SDS011;5827;49.482;7.716;2022-08-03T00:45:07;4.10;;;3.57;;
11541;SDS011;5827;49.482;7.716;2022-08-03T00:47:09;3.90;;;3.60;;
11541;SDS011;5827;49.482;7.716;2022-08-03T00:49:12;3.77;;;3.47;;
11541;SDS011;5827;49.482;7.716;2022-08-03T00:51:13;3.93;;;3.63;;
11541;SDS011;5827;49.482;7.716;2022-08-03T00:53:16;3.60;;;3.30;;
11541;SDS011;5827;49.482;7.716;2022-08-03T00:55:17;4.37;;;3.43;;
11541;SDS011;5827;49.482;7.716;2022-08-03T00:57:20;3.57;;;3.30;;
11541;SDS011;5827;49.482;7.716;2022-08-03T00:59:22;3.80;;;3.50;;
11541;SDS011;5827;49.482;7.716;2022-08-03T01:01:23;4.13;;;3.70;;
11541;SDS011;5827;49.482;7.716;2022-08-03T01:03:25;3.70;;;3.13;;
11541;SDS011;5827;49.482;7.716;2022-08-03T01:05:26;3.47;;;3.27;;
11541;SDS011;5827;49.482;7.716;2022-08-03T01:07:32;4.33;;;3.50;;
11541;SDS011;5827;49.482;7.716;2022-08-03T01:09:45;4.57;;;3.50;;
11541;SDS011;5827;49.482;7.716;2022-08-03T01:11:59;3.40;;;3.17;;
11541;SDS011;5827;49.482;7.716;2022-08-03T01:14:09;3.90;;;3.50;;
11541;SDS011;5827;49.482;7.716;2022-08-03T01:16:16;3.40;;;3.20;;
11541;SDS011;5827;49.482;7.716;2022-08-03T01:18:25;3.90;;;3.60;;
11541;SDS011;5827;49.482;7.716;2022-08-03T01:20:32;3.50;;;3.30;;
11541;SDS011;5827;49.482;7.716;2022-08-03T01:25:05;3.87;;;3.57;;
11541;SDS011;5827;49.482;7.716;2022-08-03T01:27:17;3.67;;;3.10;;
11541;SDS011;5827;49.482;7.716;2022-08-03T01:29:36;3.87;;;3.57;;
11541;SDS011;5827;49.482;7.716;2022-08-03T01:31:54;4.00;;;3.70;;
11541;SDS011;5827;49.482;7.716;2022-08-03T01:34:01;3.70;;;3.40;;
11541;SDS011;5827;49.482;7.716;2022-08-03T01:36:06;3.80;;;3.50;;
11541;SDS011;5827;49.482;7.716;2022-08-03T01:38:14;3.30;;;3.10;;
11541;SDS011;5827;49.482;7.716;2022-08-03T01:40:23;4.07;;;3.23;;
11541;SDS011;5827;49.482;7.716;2022-08-03T01:42:27;3.80;;;3.50;;
11541;SDS011;5827;49.482;7.716;2022-08-03T01:44:32;5.27;;;3.67;;
11541;SDS011;5827;49.482;7.716;2022-08-03T01:46:38;4.40;;;3.60;;
11541;SDS011;5827;49.482;7.716;2022-08-03T01:48:41;3.80;;;3.50;;
11541;SDS011;5827;49.482;7.716;2022-08-03T01:50:44;3.70;;;3.40;;
11541;SDS011;5827;49.482;7.716;2022-08-03T01:52:48;3.77;;;3.47;;
11541;SDS011;5827;49.482;7.716;2022-08-03T01:54:51;4.93;;;3.40;;
11541;SDS011;5827;49.482;7.716;2022-08-03T01:56:53;3.63;;;3.33;;
11541;SDS011;5827;49.482;7.716;2022-08-03T01:58:59;3.60;;;3.07;;
11541;SDS011;5827;49.482;7.716;2022-08-03T02:01:02;3.93;;;3.60;;
11541;SDS011;5827;49.482;7.716;2022-08-03T02:03:07;3.63;;;3.20;;
11541;SDS011;5827;49.482;7.716;2022-08-03T02:05:10;5.67;;;3.37;;
11541;SDS011;5827;49.482;7.716;2022-08-03T02:07:14;3.47;;;3.20;;
11541;SDS011;5827;49.482;7.716;2022-08-03T02:09:17;4.37;;;3.50;;
11541;SDS011;5827;49.482;7.716;2022-08-03T02:11:21;4.07;;;3.77;;
11541;SDS011;5827;49.482;7.716;2022-08-03T02:13:23;4.03;;;3.60;;
11541;SDS011;5827;49.482;7.716;2022-08-03T02:15:25;3.87;;;3.57;;
11541;SDS011;5827;49.482;7.716;2022-08-03T02:17:28;4.13;;;3.80;;
11541;SDS011;5827;49.482;7.716;2022-08-03T02:19:33;4.07;;;3.77;;
11541;SDS011;5827;49.482;7.716;2022-08-03T02:21:36;4.73;;;4.33;;
11541;SDS011;5827;49.482;7.716;2022-08-03T02:23:37;3.80;;;3.53;;
11541;SDS011;5827;49.482;7.716;2022-08-03T02:25:42;4.60;;;4.20;;
11541;SDS011;5827;49.482;7.716;2022-08-03T02:27:48;4.37;;;4.03;;
11541;SDS011;5827;49.482;7.716;2022-08-03T02:29:53;4.30;;;3.90;;
11541;SDS011;5827;49.482;7.716;2022-08-03T02:32:00;4.17;;;3.77;;
11541;SDS011;5827;49.482;7.716;2022-08-03T02:34:07;3.93;;;3.63;;
11541;SDS011;5827;49.482;7.716;2022-08-03T02:36:14;4.00;;;3.70;;
11541;SDS011;5827;49.482;7.716;2022-08-03T02:38:22;3.87;;;3.57;;
11541;SDS011;5827;49.482;7.716;2022-08-03T02:40:28;4.53;;;4.13;;
11541;SDS011;5827;49.482;7.716;2022-08-03T02:42:31;3.87;;;3.57;;
11541;SDS011;5827;49.482;7.716;2022-08-03T02:44:34;4.67;;;3.77;;
11541;SDS011;5827;49.482;7.716;2022-08-03T02:46:38;4.40;;;4.00;;
11541;SDS011;5827;49.482;7.716;2022-08-03T02:48:43;3.93;;;3.63;;
11541;SDS011;5827;49.482;7.716;2022-08-03T02:50:46;4.30;;;4.00;;
11541;SDS011;5827;49.482;7.716;2022-08-03T02:52:51;4.13;;;3.83;;
11541;SDS011;5827;49.482;7.716;2022-08-03T02:54:54;4.23;;;3.87;;
11541;SDS011;5827;49.482;7.716;2022-08-03T02:56:57;4.30;;;4.00;;
11541;SDS011;5827;49.482;7.716;2022-08-03T02:59:02;3.80;;;3.50;;
11541;SDS011;5827;49.482;7.716;2022-08-03T03:01:06;4.40;;;4.00;;
11541;SDS011;5827;49.482;7.716;2022-08-03T03:03:09;3.83;;;3.53;;
11541;SDS011;5827;49.482;7.716;2022-08-03T03:05:12;4.23;;;3.87;;
11541;SDS011;5827;49.482;7.716;2022-08-03T03:07:14;4.37;;;3.87;;
11541;SDS011;5827;49.482;7.716;2022-08-03T03:09:18;3.87;;;3.57;;
11541;SDS011;5827;49.482;7.716;2022-08-03T03:11:21;4.73;;;4.33;;
11541;SDS011;5827;49.482;7.716;2022-08-03T03:13:23;4.00;;;3.60;;
11541;SDS011;5827;49.482;7.716;2022-08-03T03:15:27;4.17;;;3.60;;
11541;SDS011;5827;49.482;7.716;2022-08-03T03:17:31;4.97;;;3.97;;
11541;SDS011;5827;49.482;7.716;2022-08-03T03:19:33;4.07;;;3.73;;
11541;SDS011;5827;49.482;7.716;2022-08-03T03:21:35;4.57;;;4.27;;
11541;SDS011;5827;49.482;7.716;2022-08-03T03:23:38;4.50;;;4.20;;
11541;SDS011;5827;49.482;7.716;2022-08-03T03:25:42;4.13;;;3.73;;
11541;SDS011;5827;49.482;7.716;2022-08-03T03:27:45;4.97;;;3.87;;
11541;SDS011;5827;49.482;7.716;2022-08-03T03:29:47;5.80;;;3.83;;
11541;SDS011;5827;49.482;7.716;2022-08-03T03:31:49;4.93;;;4.40;;
11541;SDS011;5827;49.482;7.716;2022-08-03T03:33:51;4.93;;;3.97;;
11541;SDS011;5827;49.482;7.716;2022-08-03T03:35:53;7.07;;;4.47;;
11541;SDS011;5827;49.482;7.716;2022-08-03T03:37:55;4.60;;;4.20;;
11541;SDS011;5827;49.482;7.716;2022-08-03T03:39:56;4.47;;;4.17;;
11541;SDS011;5827;49.482;7.716;2022-08-03T03:42:00;4.70;;;3.90;;
11541;SDS011;5827;49.482;7.716;2022-08-03T03:44:02;4.30;;;4.00;;
11541;SDS011;5827;49.482;7.716;2022-08-03T03:46:04;4.37;;;4.00;;
11541;SDS011;5827;49.482;7.716;2022-08-03T03:48:06;4.50;;;4.10;;
11541;SDS011;5827;49.482;7.716;2022-08-03T03:50:08;4.60;;;4.20;;
11541;SDS011;5827;49.482;7.716;2022-08-03T03:52:11;4.17;;;3.87;;
11541;SDS011;5827;49.482;7.716;2022-08-03T03:54:12;4.70;;;4.30;;
11541;SDS011;5827;49.482;7.716;2022-08-03T03:56:14;4.00;;;3.70;;
11541;SDS011;5827;49.482;7.716;2022-08-03T03:58:16;6.87;;;4.33;;
11541;SDS011;5827;49.482;7.716;2022-08-03T04:00:18;6.30;;;4.40;;
11541;SDS011;5827;49.482;7.716;2022-08-03T04:02:20;4.33;;;3.93;;
11541;SDS011;5827;49.482;7.716;2022-08-03T04:04:21;5.33;;;3.97;;
11541;SDS011;5827;49.482;7.716;2022-08-03T04:06:41;4.73;;;3.77;;
11541;SDS011;5827;49.482;7.716;2022-08-03T04:09:00;4.20;;;3.80;;
11541;SDS011;5827;49.482;7.716;2022-08-03T04:11:20;4.90;;;4.50;;
11541;SDS011;5827;49.482;7.716;2022-08-03T04:13:24;4.40;;;4.03;;
11541;SDS011;5827;49.482;7.716;2022-08-03T04:15:29;4.30;;;4.00;;
11541;SDS011;5827;49.482;7.716;2022-08-03T04:17:32;4.83;;;4.33;;
11541;SDS011;5827;49.482;7.716;2022-08-03T04:19:37;5.67;;;5.17;;
11541;SDS011;5827;49.482;7.716;2022-08-03T04:21:42;5.93;;;5.47;;
11541;SDS011;5827;49.482;7.716;2022-08-03T04:23:48;5.33;;;4.80;;
11541;SDS011;5827;49.482;7.716;2022-08-03T04:25:53;5.87;;;5.37;;
11541;SDS011;5827;49.482;7.716;2022-08-03T04:27:56;5.80;;;5.30;;
11541;SDS011;5827;49.482;7.716;2022-08-03T04:30:03;6.00;;;5.40;;
11541;SDS011;5827;49.482;7.716;2022-08-03T04:32:07;5.93;;;5.40;;
11541;SDS011;5827;49.482;7.716;2022-08-03T04:34:10;5.77;;;5.37;;
11541;SDS011;5827;49.482;7.716;2022-08-03T04:36:13;5.60;;;5.20;;
11541;SDS011;5827;49.482;7.716;2022-08-03T04:38:18;4.93;;;4.63;;
11541;SDS011;5827;49.482;7.716;2022-08-03T04:40:22;5.40;;;5.00;;
11541;SDS011;5827;49.482;7.716;2022-08-03T04:42:27;5.70;;;5.30;;
11541;SDS011;5827;49.482;7.716;2022-08-03T04:44:33;5.90;;;5.40;;
11541;SDS011;5827;49.482;7.716;2022-08-03T04:46:38;4.90;;;4.50;;
11541;SDS011;5827;49.482;7.716;2022-08-03T04:48:43;5.50;;;5.00;;
11541;SDS011;5827;49.482;7.716;2022-08-03T04:50:45;5.10;;;4.57;;
11541;SDS011;5827;49.482;7.716;2022-08-03T04:52:47;4.80;;;4.40;;
11541;SDS011;5827;49.482;7.716;2022-08-03T04:54:49;5.20;;;4.50;;
11541;SDS011;5827;49.482;7.716;2022-08-03T04:56:51;5.10;;;4.70;;
11541;SDS011;5827;49.482;7.716;2022-08-03T04:58:53;4.80;;;4.40;;
11541;SDS011;5827;49.482;7.716;2022-08-03T05:00:54;4.63;;;4.33;;
11541;SDS011;5827;49.482;7.716;2022-08-03T05:02:57;5.00;;;3.90;;
11541;SDS011;5827;49.482;7.716;2022-08-03T05:04:59;5.77;;;4.30;;
11541;SDS011;5827;49.482;7.716;2022-08-03T05:07:00;4.20;;;3.80;;
11541;SDS011;5827;49.482;7.716;2022-08-03T05:09:02;4.23;;;3.80;;
11541;SDS011;5827;49.482;7.716;2022-08-03T05:11:04;4.70;;;4.30;;
11541;SDS011;5827;49.482;7.716;2022-08-03T05:13:05;5.93;;;4.90;;
11541;SDS011;5827;49.482;7.716;2022-08-03T05:15:10;5.10;;;4.60;;
11541;SDS011;5827;49.482;7.716;2022-08-03T05:17:12;5.10;;;4.60;;
11541;SDS011;5827;49.482;7.716;2022-08-03T05:19:16;5.40;;;4.60;;
11541;SDS011;5827;49.482;7.716;2022-08-03T05:21:17;4.73;;;4.33;;
11541;SDS011;5827;49.482;7.716;2022-08-03T05:23:19;4.63;;;4.23;;
11541;SDS011;5827;49.482;7.716;2022-08-03T05:25:20;6.70;;;4.50;;
11541;SDS011;5827;49.482;7.716;2022-08-03T05:27:22;4.80;;;4.40;;
11541;SDS011;5827;49.482;7.716;2022-08-03T05:29:24;4.83;;;4.43;;
11541;SDS011;5827;49.482;7.716;2022-08-03T05:31:25;3.90;;;3.60;;
11541;SDS011;5827;49.482;7.716;2022-08-03T05:33:27;6.67;;;4.60;;
11541;SDS011;5827;49.482;7.716;2022-08-03T05:35:30;4.60;;;4.20;;
11541;SDS011;5827;49.482;7.716;2022-08-03T05:37:34;6.50;;;4.10;;
11541;SDS011;5827;49.482;7.716;2022-08-03T05:39:35;4.60;;;4.20;;
11541;SDS011;5827;49.482;7.716;2022-08-03T05:41:37;4.43;;;4.10;;
11541;SDS011;5827;49.482;7.716;2022-08-03T05:43:39;5.50;;;3.83;;
11541;SDS011;5827;49.482;7.716;2022-08-03T05:45:40;4.70;;;4.30;;
11541;SDS011;5827;49.482;7.716;2022-08-03T05:47:43;4.17;;;3.77;;
11541;SDS011;5827;49.482;7.716;2022-08-03T05:49:44;6.93;;;3.90;;
11541;SDS011;5827;49.482;7.716;2022-08-03T05:51:47;5.50;;;4.20;;
11541;SDS011;5827;49.482;7.716;2022-08-03T05:53:49;4.50;;;4.10;;
11541;SDS011;5827;49.482;7.716;2022-08-03T05:55:51;5.03;;;4.30;;
11541;SDS011;5827;49.482;7.716;2022-08-03T05:57:52;6.87;;;4.20;;
11541;SDS011;5827;49.482;7.716;2022-08-03T05:59:54;4.57;;;4.17;;
11541;SDS011;5827;49.482;7.716;2022-08-03T06:01:55;4.07;;;3.77;;
11541;SDS011;5827;49.482;7.716;2022-08-03T06:03:57;4.63;;;4.10;;
11541;SDS011;5827;49.482;7.716;2022-08-03T06:05:58;5.90;;;3.87;;
11541;SDS011;5827;49.482;7.716;2022-08-03T06:08:01;4.53;;;4.07;;
11541;SDS011;5827;49.482;7.716;2022-08-03T06:10:03;4.40;;;4.00;;
11541;SDS011;5827;49.482;7.716;2022-08-03T06:12:05;4.07;;;3.67;;
11541;SDS011;5827;49.482;7.716;2022-08-03T06:14:07;3.87;;;3.57;;
11541;SDS011;5827;49.482;7.716;2022-08-03T06:16:09;4.43;;;4.03;;
11541;SDS011;5827;49.482;7.716;2022-08-03T06:18:10;3.80;;;3.60;;
11541;SDS011;5827;49.482;7.716;2022-08-03T06:20:12;4.10;;;3.80;;
11541;SDS011;5827;49.482;7.716;2022-08-03T06:22:14;4.07;;;3.73;;
11541;SDS011;5827;49.482;7.716;2022-08-03T06:24:16;3.87;;;3.57;;
11541;SDS011;5827;49.482;7.716;2022-08-03T06:26:18;4.00;;;3.67;;
11541;SDS011;5827;49.482;7.716;2022-08-03T06:28:19;4.60;;;4.10;;
11541;SDS011;5827;49.482;7.716;2022-08-03T06:30:21;3.63;;;3.30;;
11541;SDS011;5827;49.482;7.716;2022-08-03T06:32:23;4.20;;;3.23;;
11541;SDS011;5827;49.482;7.716;2022-08-03T06:34:24;3.90;;;3.60;;
11541;SDS011;5827;49.482;7.716;2022-08-03T06:36:26;4.83;;;3.90;;
11541;SDS011;5827;49.482;7.716;2022-08-03T06:38:30;4.30;;;3.90;;
11541;SDS011;5827;49.482;7.716;2022-08-03T06:40:34;3.67;;;3.40;;
11541;SDS011;5827;49.482;7.716;2022-08-03T06:42:39;3.63;;;3.33;;
11541;SDS011;5827;49.482;7.716;2022-08-03T06:44:40;3.93;;;3.57;;
11541;SDS011;5827;49.482;7.716;2022-08-03T06:46:42;5.37;;;3.60;;
11541;SDS011;5827;49.482;7.716;2022-08-03T06:48:43;3.70;;;3.33;;
11541;SDS011;5827;49.482;7.716;2022-08-03T06:50:45;3.57;;;3.37;;
11541;SDS011;5827;49.482;7.716;2022-08-03T06:52:47;3.73;;;3.43;;
11541;SDS011;5827;49.482;7.716;2022-08-03T06:54:50;3.30;;;3.03;;
11541;SDS011;5827;49.482;7.716;2022-08-03T06:57:13;3.30;;;3.10;;
11541;SDS011;5827;49.482;7.716;2022-08-03T06:59:18;3.30;;;3.10;;
11541;SDS011;5827;49.482;7.716;2022-08-03T07:01:30;4.30;;;3.40;;
11541;SDS011;5827;49.482;7.716;2022-08-03T07:03:32;3.60;;;3.30;;
11541;SDS011;5827;49.482;7.716;2022-08-03T07:05:40;3.65;;;2.88;;
11541;SDS011;5827;49.482;7.716;2022-08-03T07:07:42;3.67;;;3.20;;
11541;SDS011;5827;49.482;7.716;2022-08-03T07:09:45;3.67;;;3.17;;
11541;SDS011;5827;49.482;7.716;2022-08-03T07:11:48;3.43;;;3.20;;
11541;SDS011;5827;49.482;7.716;2022-08-03T07:13:55;3.17;;;2.97;;
11541;SDS011;5827;49.482;7.716;2022-08-03T07:15:57;5.65;;;2.80;;
11541;SDS011;5827;49.482;7.716;2022-08-03T07:17:59;3.20;;;3.00;;
11541;SDS011;5827;49.482;7.716;2022-08-03T07:20:02;3.10;;;2.90;;
11541;SDS011;5827;49.482;7.716;2022-08-03T07:22:05;3.75;;;3.10;;
11541;SDS011;5827;49.482;7.716;2022-08-03T07:24:07;5.18;;;3.05;;
11541;SDS011;5827;49.482;7.716;2022-08-03T07:26:09;3.42;;;3.13;;
11541;SDS011;5827;49.482;7.716;2022-08-03T07:28:11;3.00;;;2.80;;
11541;SDS011;5827;49.482;7.716;2022-08-03T07:30:14;5.22;;;2.90;;
11541;SDS011;5827;49.482;7.716;2022-08-03T07:32:16;3.33;;;3.13;;
11541;SDS011;5827;49.482;7.716;2022-08-03T07:34:18;3.00;;;2.70;;
11541;SDS011;5827;49.482;7.716;2022-08-03T07:36:19;3.35;;;2.90;;
11541;SDS011;5827;49.482;7.716;2022-08-03T07:38:21;3.85;;;2.88;;
11541;SDS011;5827;49.482;7.716;2022-08-03T07:40:22;3.15;;;2.80;;
11541;SDS011;5827;49.482;7.716;2022-08-03T07:42:25;3.28;;;2.97;;
11541;SDS011;5827;49.482;7.716;2022-08-03T07:44:27;2.95;;;2.75;;
11541;SDS011;5827;49.482;7.716;2022-08-03T07:46:30;3.00;;;2.80;;
11541;SDS011;5827;49.482;7.716;2022-08-03T07:48:31;4.40;;;3.00;;
11541;SDS011;5827;49.482;7.716;2022-08-03T07:50:33;3.05;;;2.72;;
11541;SDS011;5827;49.482;7.716;2022-08-03T07:52:35;3.00;;;2.80;;
11541;SDS011;5827;49.482;7.716;2022-08-03T07:54:49;2.60;;;2.50;;
11541;SDS011;5827;49.482;7.716;2022-08-03T07:56:50;3.55;;;2.78;;
11541;SDS011;5827;49.482;7.716;2022-08-03T07:58:52;2.90;;;2.70;;
11541;SDS011;5827;49.482;7.716;2022-08-03T08:00:54;3.80;;;2.60;;
11541;SDS011;5827;49.482;7.716;2022-08-03T08:02:57;3.45;;;2.78;;
11541;SDS011;5827;49.482;7.716;2022-08-03T08:04:59;3.22;;;2.47;;
11541;SDS011;5827;49.482;7.716;2022-08-03T08:07:00;5.05;;;2.80;;
11541;SDS011;5827;49.482;7.716;2022-08-03T08:09:02;3.08;;;2.53;;
11541;SDS011;5827;49.482;7.716;2022-08-03T08:11:04;4.85;;;2.60;;
11541;SDS011;5827;49.482;7.716;2022-08-03T08:13:05;5.40;;;2.40;;
11541;SDS011;5827;49.482;7.716;2022-08-03T08:15:07;3.10;;;2.70;;
11541;SDS011;5827;49.482;7.716;2022-08-03T08:17:09;2.80;;;2.25;;
11541;SDS011;5827;49.482;7.716;2022-08-03T08:19:12;6.05;;;2.72;;
11541;SDS011;5827;49.482;7.716;2022-08-03T08:21:15;4.18;;;2.50;;
11541;SDS011;5827;49.482;7.716;2022-08-03T08:23:17;4.30;;;2.72;;
11541;SDS011;5827;49.482;7.716;2022-08-03T08:25:21;5.15;;;2.72;;
11541;SDS011;5827;49.482;7.716;2022-08-03T08:27:23;4.35;;;2.35;;
11541;SDS011;5827;49.482;7.716;2022-08-03T08:29:25;4.47;;;2.55;;
11541;SDS011;5827;49.482;7.716;2022-08-03T08:31:27;3.95;;;2.40;;
11541;SDS011;5827;49.482;7.716;2022-08-03T08:33:29;2.90;;;2.25;;
11541;SDS011;5827;49.482;7.716;2022-08-03T08:35:32;3.22;;;2.30;;
11541;SDS011;5827;49.482;7.716;2022-08-03T08:37:34;2.45;;;2.10;;
11541;SDS011;5827;49.482;7.716;2022-08-03T08:39:36;2.88;;;2.30;;
11541;SDS011;5827;49.482;7.716;2022-08-03T08:41:37;2.75;;;2.55;;
11541;SDS011;5827;49.482;7.716;2022-08-03T08:43:39;2.47;;;2.28;;
11541;SDS011;5827;49.482;7.716;2022-08-03T08:45:42;2.63;;;1.98;;
11541;SDS011;5827;49.482;7.716;2022-08-03T08:47:45;3.90;;;2.35;;
11541;SDS011;5827;49.482;7.716;2022-08-03T08:49:49;3.13;;;2.28;;
11541;SDS011;5827;49.482;7.716;2022-08-03T08:51:54;2.28;;;2.00;;
11541;SDS011;5827;49.482;7.716;2022-08-03T08:53:59;3.88;;;2.10;;
11541;SDS011;5827;49.482;7.716;2022-08-03T08:56:03;1.90;;;1.80;;
11541;SDS011;5827;49.482;7.716;2022-08-03T08:58:09;2.38;;;1.75;;
11541;SDS011;5827;49.482;7.716;2022-08-03T09:00:12;2.60;;;2.20;;
11541;SDS011;5827;49.482;7.716;2022-08-03T09:02:14;2.25;;;2.05;;
11541;SDS011;5827;49.482;7.716;2022-08-03T09:04:16;2.35;;;2.03;;
11541;SDS011;5827;49.482;7.716;2022-08-03T09:06:18;2.20;;;2.10;;
11541;SDS011;5827;49.482;7.716;2022-08-03T09:08:21;2.90;;;2.40;;
11541;SDS011;5827;49.482;7.716;2022-08-03T09:10:23;1.98;;;1.88;;
11541;SDS011;5827;49.482;7.716;2022-08-03T09:12:25;2.38;;;2.28;;
11541;SDS011;5827;49.482;7.716;2022-08-03T09:14:26;2.28;;;2.08;;
11541;SDS011;5827;49.482;7.716;2022-08-03T09:16:29;3.45;;;2.25;;
11541;SDS011;5827;49.482;7.716;2022-08-03T09:18:31;2.50;;;2.30;;
11541;SDS011;5827;49.482;7.716;2022-08-03T09:20:33;2.47;;;2.35;;
11541;SDS011;5827;49.482;7.716;2022-08-03T09:22:35;2.42;;;2.22;;
11541;SDS011;5827;49.482;7.716;2022-08-03T09:24:54;2.30;;;2.20;;
11541;SDS011;5827;49.482;7.716;2022-08-03T09:26:57;2.95;;;2.10;;
11541;SDS011;5827;49.482;7.716;2022-08-03T09:28:59;3.83;;;2.35;;
11541;SDS011;5827;49.482;7.716;2022-08-03T09:31:02;2.20;;;2.10;;
11541;SDS011;5827;49.482;7.716;2022-08-03T09:33:04;2.50;;;2.20;;
11541;SDS011;5827;49.482;7.716;2022-08-03T09:35:07;2.25;;;2.08;;
11541;SDS011;5827;49.482;7.716;2022-08-03T09:37:11;2.33;;;2.10;;
11541;SDS011;5827;49.482;7.716;2022-08-03T09:39:15;2.15;;;2.00;;
11541;SDS011;5827;49.482;7.716;2022-08-03T09:41:19;2.10;;;2.00;;
11541;SDS011;5827;49.482;7.716;2022-08-03T09:43:21;2.72;;;2.13;;
11541;SDS011;5827;49.482;7.716;2022-08-03T09:45:25;2.53;;;2.25;;
11541;SDS011;5827;49.482;7.716;2022-08-03T09:47:27;2.95;;;2.00;;
11541;SDS011;5827;49.482;7.716;2022-08-03T09:49:31;3.00;;;2.20;;
11541;SDS011;5827;49.482;7.716;2022-08-03T09:51:32;3.45;;;2.10;;
11541;SDS011;5827;49.482;7.716;2022-08-03T09:53:40;3.50;;;2.38;;
11541;SDS011;5827;49.482;7.716;2022-08-03T09:55:49;2.35;;;2.20;;
11541;SDS011;5827;49.482;7.716;2022-08-03T09:57:52;2.20;;;2.10;;
11541;SDS011;5827;49.482;7.716;2022-08-03T10:00:06;2.47;;;2.28;;
11541;SDS011;5827;49.482;7.716;2022-08-03T10:02:18;3.15;;;1.90;;
11541;SDS011;5827;49.482;7.716;2022-08-03T10:04:22;2.25;;;2.05;;
11541;SDS011;5827;49.482;7.716;2022-08-03T10:06:24;4.82;;;2.22;;
11541;SDS011;5827;49.482;7.716;2022-08-03T10:08:26;2.47;;;2.28;;
11541;SDS011;5827;49.482;7.716;2022-08-03T10:10:28;2.15;;;2.00;;
11541;SDS011;5827;49.482;7.716;2022-08-03T10:12:43;2.30;;;1.98;;
11541;SDS011;5827;49.482;7.716;2022-08-03T10:14:48;5.47;;;2.08;;
11541;SDS011;5827;49.482;7.716;2022-08-03T10:16:50;3.00;;;1.95;;
11541;SDS011;5827;49.482;7.716;2022-08-03T10:18:51;2.33;;;2.17;;
11541;SDS011;5827;49.482;7.716;2022-08-03T10:20:54;2.20;;;2.10;;
11541;SDS011;5827;49.482;7.716;2022-08-03T10:23:02;3.08;;;2.38;;
11541;SDS011;5827;49.482;7.716;2022-08-03T10:25:05;2.05;;;1.95;;
11541;SDS011;5827;49.482;7.716;2022-08-03T10:27:09;4.07;;;2.30;;
11541;SDS011;5827;49.482;7.716;2022-08-03T10:29:21;2.35;;;2.10;;
11541;SDS011;5827;49.482;7.716;2022-08-03T10:31:27;2.58;;;2.38;;
11541;SDS011;5827;49.482;7.716;2022-08-03T10:33:36;3.67;;;2.10;;
11541;SDS011;5827;49.482;7.716;2022-08-03T10:35:42;2.17;;;2.05;;
11541;SDS011;5827;49.482;7.716;2022-08-03T10:37:48;2.30;;;2.08;;
11541;SDS011;5827;49.482;7.716;2022-08-03T10:39:55;2.10;;;2.00;;
11541;SDS011;5827;49.482;7.716;2022-08-03T10:42:00;3.60;;;2.10;;
11541;SDS011;5827;49.482;7.716;2022-08-03T10:44:04;2.30;;;2.00;;
11541;SDS011;5827;49.482;7.716;2022-08-03T10:46:10;3.55;;;2.10;;
11541;SDS011;5827;49.482;7.716;2022-08-03T10:48:13;2.50;;;2.30;;
11541;SDS011;5827;49.482;7.716;2022-08-03T10:50:16;2.55;;;2.28;;
11541;SDS011;5827;49.482;7.716;2022-08-03T10:52:18;2.28;;;2.17;;
11541;SDS011;5827;49.482;7.716;2022-08-03T10:56:58;4.63;;;2.20;;
11541;SDS011;5827;49.482;7.716;2022-08-03T11:01:57;2.80;;;1.80;;
11541;SDS011;5827;49.482;7.716;2022-08-03T11:04:15;2.72;;;2.08;;
11541;SDS011;5827;49.482;7.716;2022-08-03T11:06:18;2.05;;;1.95;;
11541;SDS011;5827;49.482;7.716;2022-08-03T11:10:33;2.20;;;2.10;;
11541;SDS011;5827;49.482;7.716;2022-08-03T11:12:35;4.13;;;2.20;;
11541;SDS011;5827;49.482;7.716;2022-08-03T11:14:44;3.05;;;1.90;;
11541;SDS011;5827;49.482;7.716;2022-08-03T11:16:48;2.65;;;2.28;;
11541;SDS011;5827;49.482;7.716;2022-08-03T11:18:56;2.22;;;2.00;;
11541;SDS011;5827;49.482;7.716;2022-08-03T11:21:00;2.25;;;2.05;;
11541;SDS011;5827;49.482;7.716;2022-08-03T11:23:02;3.03;;;2.15;;
11541;SDS011;5827;49.482;7.716;2022-08-03T11:25:04;2.22;;;1.90;;
11541;SDS011;5827;49.482;7.716;2022-08-03T11:27:16;2.33;;;2.13;;
11541;SDS011;5827;49.482;7.716;2022-08-03T11:29:28;3.50;;;2.10;;
11541;SDS011;5827;49.482;7.716;2022-08-03T11:34:02;3.35;;;2.10;;
11541;SDS011;5827;49.482;7.716;2022-08-03T11:36:06;3.22;;;2.00;;
11541;SDS011;5827;49.482;7.716;2022-08-03T11:38:09;3.30;;;2.33;;
11541;SDS011;5827;49.482;7.716;2022-08-03T11:40:18;3.80;;;2.30;;
11541;SDS011;5827;49.482;7.716;2022-08-03T11:42:42;2.03;;;1.92;;
11541;SDS011;5827;49.482;7.716;2022-08-03T11:44:47;3.17;;;2.08;;
11541;SDS011;5827;49.482;7.716;2022-08-03T11:46:50;3.85;;;2.03;;
11541;SDS011;5827;49.482;7.716;2022-08-03T11:48:52;2.33;;;2.03;;
11541;SDS011;5827;49.482;7.716;2022-08-03T11:50:58;2.20;;;2.10;;
11541;SDS011;5827;49.482;7.716;2022-08-03T11:53:01;2.13;;;2.00;;
11541;SDS011;5827;49.482;7.716;2022-08-03T11:55:07;3.40;;;1.75;;
11541;SDS011;5827;49.482;7.716;2022-08-03T11:57:10;2.15;;;1.95;;
11541;SDS011;5827;49.482;7.716;2022-08-03T11:59:12;2.47;;;2.28;;
11541;SDS011;5827;49.482;7.716;2022-08-03T12:01:13;2.20;;;2.10;;
11541;SDS011;5827;49.482;7.716;2022-08-03T12:03:17;3.45;;;2.00;;
11541;SDS011;5827;49.482;7.716;2022-08-03T12:05:19;1.90;;;1.80;;
11541;SDS011;5827;49.482;7.716;2022-08-03T12:07:21;2.58;;;2.10;;
11541;SDS011;5827;49.482;7.716;2022-08-03T12:09:24;3.97;;;2.10;;
11541;SDS011;5827;49.482;7.716;2022-08-03T12:11:25;2.50;;;2.30;;
11541;SDS011;5827;49.482;7.716;2022-08-03T12:13:36;2.40;;;2.10;;
11541;SDS011;5827;49.482;7.716;2022-08-03T12:15:40;2.58;;;2.28;;
11541;SDS011;5827;49.482;7.716;2022-08-03T12:17:41;2.20;;;2.00;;
11541;SDS011;5827;49.482;7.716;2022-08-03T12:19:43;2.83;;;2.30;;
11541;SDS011;5827;49.482;7.716;2022-08-03T12:21:45;4.28;;;2.20;;
11541;SDS011;5827;49.482;7.716;2022-08-03T12:23:47;2.47;;;2.17;;
11541;SDS011;5827;49.482;7.716;2022-08-03T12:25:50;2.72;;;2.00;;
11541;SDS011;5827;49.482;7.716;2022-08-03T12:27:52;2.22;;;2.13;;
11541;SDS011;5827;49.482;7.716;2022-08-03T12:29:54;2.33;;;2.10;;
11541;SDS011;5827;49.482;7.716;2022-08-03T12:31:57;2.30;;;2.08;;
11541;SDS011;5827;49.482;7.716;2022-08-03T12:33:59;3.30;;;2.10;;
11541;SDS011;5827;49.482;7.716;2022-08-03T12:36:04;2.80;;;2.60;;
11541;SDS011;5827;49.482;7.716;2022-08-03T12:38:07;2.40;;;2.20;;
11541;SDS011;5827;49.482;7.716;2022-08-03T12:40:10;2.88;;;2.53;;
11541;SDS011;5827;49.482;7.716;2022-08-03T12:42:16;2.55;;;2.00;;
11541;SDS011;5827;49.482;7.716;2022-08-03T12:44:27;2.78;;;2.55;;
11541;SDS011;5827;49.482;7.716;2022-08-03T12:46:31;2.63;;;2.42;;
11541;SDS011;5827;49.482;7.716;2022-08-03T12:48:34;2.38;;;2.17;;